KOLV

Olive Branch Airport

Olive Branch, Mississippi, USA
METAR KOLV 230150Z 04007KT 1 1/2SM BR OVC003 11/11 A3025
Observed Flight Rules
Feb-23 @ 01:50 UTC (10 hours ago) Instrument Flight Rules
Wind Visibility Clouds Conditions
40° at 7 knots 1 1/2 miles
  • Overcast at 300' AGL
  • Mist
Temperatures Readings
Current 11°C / 52°F
Dewpoint 11°C / 52°F
Humidity 100%
Altimeter 30.25" Hg
Pressure 1024 hPa
Elevation 122
METAR KOLV 230150Z 04007KT 1 1/2SM BR OVC003 11/11 A3025
Observed Flight Rules
Feb-23 @ 01:50 UTC
(10 hours ago)
LIFR
Wind Visibility
40° at 7 knots 1 1/2 miles
Clouds
  • Overcast at 300' AGL
Conditions
  • Mist
Temperature Dewpoint
11°C / 52°F 11°C / 52°F
Humidity Altimeter Pressure
100% 30.25" Hg 1024 hPa